createdAt,value
2023-03-16T00:03:08.645Z,16.40
2023-03-16T00:07:07.554Z,15.70
2023-03-16T00:11:05.538Z,16.30
2023-03-16T00:15:03.512Z,16.00
2023-03-16T00:19:01.494Z,17.30
2023-03-16T00:22:59.566Z,17.80
2023-03-16T00:27:01.563Z,18.40
2023-03-16T00:30:59.510Z,18.00
2023-03-16T00:34:59.544Z,17.00
2023-03-16T00:38:57.427Z,17.20
2023-03-16T00:42:55.518Z,17.70
2023-03-16T00:46:53.462Z,18.40
2023-03-16T00:50:53.434Z,18.70
2023-03-16T00:54:51.467Z,18.40
2023-03-16T00:58:51.557Z,19.10
2023-03-16T01:02:49.445Z,18.00
2023-03-16T01:06:47.457Z,17.70
2023-03-16T01:10:47.373Z,17.70
2023-03-16T01:14:45.450Z,18.60
2023-03-16T01:18:43.433Z,18.60
2023-03-16T01:22:41.452Z,19.70
2023-03-16T01:26:39.508Z,18.00
2023-03-16T01:30:37.623Z,19.70
2023-03-16T01:34:35.497Z,18.70
2023-03-16T01:38:35.443Z,20.10
2023-03-16T01:42:33.350Z,20.90
2023-03-16T01:46:37.524Z,22.00
2023-03-16T01:50:35.480Z,20.60
2023-03-16T01:54:44.419Z,19.90
2023-03-16T01:58:44.444Z,20.10
2023-03-16T02:02:45.354Z,21.70
2023-03-16T02:06:51.348Z,21.30
2023-03-16T02:10:50.378Z,22.10
2023-03-16T02:14:54.294Z,21.30
2023-03-16T02:18:55.763Z,21.60
2023-03-16T02:23:03.277Z,20.90
2023-03-16T02:27:07.467Z,20.60
2023-03-16T02:31:05.359Z,21.80
2023-03-16T02:35:05.351Z,21.90
2023-03-16T02:39:03.344Z,23.60
2023-03-16T02:43:20.310Z,21.70
2023-03-16T02:47:35.272Z,22.70
2023-03-16T02:51:33.322Z,21.80
2023-03-16T02:55:32.322Z,23.60
2023-03-16T02:59:30.352Z,23.90
2023-03-16T03:03:28.305Z,25.60
2023-03-16T03:07:29.538Z,24.60
2023-03-16T03:11:29.384Z,24.10
2023-03-16T03:15:28.258Z,25.00
2023-03-16T03:19:30.258Z,25.20
2023-03-16T03:23:28.279Z,23.70
2023-03-16T03:27:26.308Z,24.80
2023-03-16T03:31:32.334Z,25.40
2023-03-16T03:35:31.276Z,26.10
2023-03-16T03:39:29.272Z,24.70
2023-03-16T03:43:27.223Z,27.90
2023-03-16T03:47:25.296Z,28.70
2023-03-16T03:51:23.157Z,28.00
2023-03-16T03:55:31.244Z,26.20
2023-03-16T03:59:29.170Z,23.70
2023-03-16T04:03:47.222Z,23.60
2023-03-16T04:07:45.194Z,24.40
2023-03-16T04:11:43.193Z,25.30
2023-03-16T04:15:42.184Z,24.40
2023-03-16T04:19:47.222Z,25.20
2023-03-16T04:23:45.140Z,24.40
2023-03-16T04:27:43.185Z,27.20
2023-03-16T04:31:42.184Z,24.70
2023-03-16T04:35:40.277Z,25.40
2023-03-16T04:39:39.106Z,25.50
2023-03-16T04:43:41.348Z,29.00
2023-03-16T04:47:44.147Z,27.30
2023-03-16T04:51:42.111Z,29.40
2023-03-16T04:55:42.138Z,27.00
2023-03-16T04:59:40.222Z,26.90
2023-03-16T05:03:45.165Z,29.90
2023-03-16T05:07:44.783Z,27.80
2023-03-16T05:11:43.072Z,27.20
2023-03-16T05:15:42.256Z,29.00
2023-03-16T05:19:44.151Z,26.70
2023-03-16T05:23:43.099Z,24.60
2023-03-16T05:27:41.029Z,26.50
2023-03-16T05:31:44.098Z,25.10
2023-03-16T05:35:46.060Z,24.20
2023-03-16T05:39:44.077Z,23.10
2023-03-16T05:43:44.025Z,23.60
2023-03-16T05:47:43.133Z,21.40
2023-03-16T05:51:42.011Z,20.90
2023-03-16T05:55:40.018Z,21.30
2023-03-16T05:59:39.046Z,22.40
2023-03-16T06:03:37.088Z,19.50
2023-03-16T06:07:38.947Z,20.40
2023-03-16T06:11:37.024Z,20.50
2023-03-16T06:15:37.051Z,20.70
2023-03-16T06:19:35.028Z,19.20
2023-03-16T06:23:34.115Z,19.20
2023-03-16T06:27:33.982Z,18.80
2023-03-16T06:31:35.027Z,18.90
2023-03-16T06:35:32.977Z,18.50
2023-03-16T06:39:38.057Z,19.60
2023-03-16T06:43:35.997Z,18.40
2023-03-16T06:47:34.946Z,20.00
2023-03-16T06:51:33.031Z,21.30
2023-03-16T06:55:30.932Z,21.10
2023-03-16T06:59:29.052Z,21.40
2023-03-16T07:03:02.987Z,20.00
2023-03-16T07:06:44.557Z,17.20
2023-03-16T07:10:18.525Z,15.70
2023-03-16T07:13:44.366Z,15.70
2023-03-16T07:17:09.183Z,15.70
2023-03-16T07:20:34.532Z,15.90
2023-03-16T07:24:02.609Z,14.60
2023-03-16T07:27:29.543Z,12.70
2023-03-16T07:31:03.419Z,14.20
2023-03-16T07:34:33.700Z,14.10
2023-03-16T07:37:58.620Z,11.50
2023-03-16T07:41:23.100Z,11.20
2023-03-16T07:44:48.404Z,10.20
2023-03-16T07:48:12.990Z,10.80
2023-03-16T07:51:43.445Z,8.00
2023-03-16T07:55:08.979Z,8.70
2023-03-16T07:58:33.218Z,7.90
2023-03-16T08:02:07.079Z,8.30
2023-03-16T08:05:33.257Z,7.20
2023-03-16T08:09:03.820Z,8.40
2023-03-16T08:12:30.926Z,9.20
2023-03-16T08:15:58.751Z,8.20
2023-03-16T08:19:36.298Z,8.40
2023-03-16T08:23:01.608Z,6.90
2023-03-16T08:26:32.086Z,6.90
2023-03-16T08:29:57.273Z,7.50
2023-03-16T08:33:23.431Z,4.70
2023-03-16T08:36:48.539Z,6.60
2023-03-16T08:40:15.080Z,7.40
2023-03-16T08:43:39.875Z,8.60
2023-03-16T08:47:05.295Z,9.00
2023-03-16T08:50:30.340Z,7.70
2023-03-16T08:53:56.747Z,5.60
2023-03-16T08:57:22.805Z,6.80
2023-03-16T09:00:50.252Z,3.60
2023-03-16T09:04:16.610Z,5.10
2023-03-16T09:07:43.717Z,5.60
2023-03-16T09:11:11.286Z,6.00
2023-03-16T09:14:37.676Z,5.00
2023-03-16T09:18:04.137Z,8.70
2023-03-16T09:21:28.484Z,8.40
2023-03-16T09:24:53.208Z,8.60
2023-03-16T09:28:20.947Z,5.80
2023-03-16T09:31:48.280Z,8.70
2023-03-16T09:35:16.139Z,9.70
2023-03-16T09:38:41.508Z,8.00
2023-03-16T09:42:20.914Z,7.60
2023-03-16T09:45:55.714Z,7.20
2023-03-16T09:49:26.200Z,7.70
2023-03-16T09:53:21.243Z,5.90
2023-03-16T09:56:50.443Z,7.60
2023-03-16T10:00:22.272Z,6.30
2023-03-16T10:04:13.471Z,6.40
2023-03-16T10:08:06.990Z,6.60
2023-03-16T10:11:42.810Z,6.60
2023-03-16T10:15:11.871Z,4.70
2023-03-16T10:18:46.142Z,4.90
2023-03-16T10:22:27.336Z,6.50
2023-03-16T10:25:59.710Z,5.50
2023-03-16T10:29:24.476Z,5.90
2023-03-16T10:32:51.817Z,5.20
2023-03-16T10:36:25.553Z,6.80
2023-03-16T10:39:55.650Z,6.30
2023-03-16T10:43:21.066Z,7.00
2023-03-16T10:46:48.733Z,6.80
2023-03-16T10:50:17.805Z,6.00
2023-03-16T10:53:44.847Z,5.50
2023-03-16T10:57:23.726Z,7.00
2023-03-16T11:00:47.771Z,7.20
2023-03-16T11:04:16.569Z,8.60
2023-03-16T11:07:52.589Z,8.70
2023-03-16T11:11:32.657Z,9.40
2023-03-16T11:15:07.483Z,7.80
2023-03-16T11:18:43.698Z,8.20
2023-03-16T11:22:17.823Z,7.30
2023-03-16T11:25:52.030Z,7.00
2023-03-16T11:29:25.332Z,6.70
2023-03-16T11:32:53.617Z,6.80
2023-03-16T11:36:45.208Z,6.30
2023-03-16T11:40:33.421Z,5.40
2023-03-16T11:44:02.339Z,5.10
2023-03-16T11:47:28.014Z,5.60
2023-03-16T11:51:06.848Z,6.10
2023-03-16T11:54:40.715Z,5.30
2023-03-16T11:58:30.235Z,5.20
2023-03-16T12:02:33.633Z,5.40
2023-03-16T12:06:22.204Z,4.40
2023-03-16T12:10:04.212Z,4.50
2023-03-16T12:13:52.922Z,4.40
2023-03-16T12:17:28.710Z,4.00
2023-03-16T12:21:13.433Z,3.20
2023-03-16T12:24:44.657Z,4.20
2023-03-16T12:28:19.541Z,3.40
2023-03-16T12:31:50.894Z,4.20
2023-03-16T12:35:26.303Z,4.20
2023-03-16T12:39:02.311Z,4.00
2023-03-16T12:43:03.919Z,4.10
2023-03-16T12:47:00.802Z,3.60
2023-03-16T12:50:27.421Z,3.40
2023-03-16T12:53:53.372Z,3.30
2023-03-16T12:57:19.646Z,3.50
2023-03-16T13:00:57.745Z,3.20
2023-03-16T13:04:33.882Z,3.10
2023-03-16T13:08:25.301Z,3.20
2023-03-16T13:11:54.264Z,3.00
2023-03-16T13:15:23.709Z,3.40
2023-03-16T13:18:48.940Z,3.00
2023-03-16T13:22:27.201Z,3.20
2023-03-16T13:26:17.251Z,2.80
2023-03-16T13:29:41.695Z,2.70
2023-03-16T13:33:29.134Z,2.60
2023-03-16T13:36:58.855Z,2.70
2023-03-16T13:40:27.814Z,2.80
2023-03-16T13:43:53.230Z,3.10
2023-03-16T13:47:20.269Z,3.80
2023-03-16T13:50:45.254Z,4.00
2023-03-16T13:54:30.186Z,4.30
2023-03-16T13:57:54.571Z,4.10
2023-03-16T14:01:26.881Z,4.50
2023-03-16T14:04:50.832Z,5.20
2023-03-16T14:08:20.975Z,4.80
2023-03-16T14:11:48.722Z,4.40
2023-03-16T14:15:17.561Z,4.70
2023-03-16T14:18:56.065Z,4.30
2023-03-16T14:22:24.648Z,4.30
2023-03-16T14:25:50.222Z,5.10
2023-03-16T14:29:32.297Z,3.60
2023-03-16T14:33:18.395Z,4.90
2023-03-16T14:37:34.472Z,5.60
2023-03-16T14:41:42.414Z,6.10
2023-03-16T14:45:47.380Z,6.90
2023-03-16T14:49:53.328Z,6.90
2023-03-16T14:57:50.384Z,5.20
2023-03-16T15:01:48.398Z,5.30
2023-03-16T15:05:55.367Z,5.20
2023-03-16T15:09:56.341Z,4.90
2023-03-16T15:14:12.880Z,4.60
2023-03-16T15:18:10.294Z,5.20
2023-03-16T15:22:08.277Z,6.20
2023-03-16T15:26:07.406Z,5.80
2023-03-16T15:30:05.304Z,5.00
2023-03-16T15:34:03.274Z,5.40
2023-03-16T15:38:01.497Z,5.50
2023-03-16T15:41:59.277Z,6.20
2023-03-16T15:45:58.270Z,5.50
2023-03-16T15:49:56.235Z,4.80
2023-03-16T15:53:58.276Z,4.80
2023-03-16T15:57:56.242Z,5.90
2023-03-16T16:02:00.235Z,6.20
2023-03-16T16:05:58.223Z,7.90
2023-03-16T16:09:56.361Z,7.20
2023-03-16T16:13:54.248Z,7.50
2023-03-16T16:18:18.619Z,7.70
2023-03-16T16:22:10.289Z,7.60
2023-03-16T16:26:11.332Z,9.40
2023-03-16T16:30:09.216Z,11.60
2023-03-16T16:34:07.192Z,15.70
2023-03-16T16:38:06.165Z,14.10
2023-03-16T16:42:10.332Z,13.10
2023-03-16T16:46:08.215Z,13.50
2023-03-16T16:50:06.182Z,13.80
2023-03-16T16:54:05.287Z,13.70
2023-03-16T16:58:12.402Z,14.40
2023-03-16T17:02:18.108Z,13.00
2023-03-16T17:06:16.244Z,15.90
2023-03-16T17:10:16.511Z,15.30
2023-03-16T17:14:16.143Z,15.00
2023-03-16T17:18:18.262Z,13.70
2023-03-16T17:22:17.134Z,13.10
2023-03-16T17:26:30.105Z,14.70
2023-03-16T17:30:36.168Z,12.80
2023-03-16T17:34:37.069Z,12.30
2023-03-16T17:38:38.133Z,15.80
2023-03-16T17:42:36.117Z,17.10
2023-03-16T17:46:36.324Z,21.70
2023-03-16T17:50:40.061Z,20.20
2023-03-16T17:54:40.413Z,26.00
2023-03-16T17:58:45.131Z,31.50
2023-03-16T18:03:07.202Z,29.00
2023-03-16T18:07:05.053Z,26.70
2023-03-16T18:11:06.116Z,28.90
2023-03-16T18:15:06.035Z,31.40
2023-03-16T18:19:06.104Z,35.20
2023-03-16T18:23:04.049Z,36.20
2023-03-16T18:27:02.221Z,33.60
2023-03-16T18:31:04.134Z,32.10
2023-03-16T18:35:03.965Z,30.00
2023-03-16T18:39:04.053Z,37.70
2023-03-16T18:43:02.044Z,38.20
2023-03-16T18:47:03.392Z,35.50
2023-03-16T18:51:01.116Z,33.30
2023-03-16T18:55:00.077Z,32.60
2023-03-16T18:58:58.237Z,48.20
2023-03-16T19:02:56.984Z,34.90
2023-03-16T19:06:56.046Z,31.80
2023-03-16T19:10:58.963Z,44.40
2023-03-16T19:14:57.035Z,47.70
2023-03-16T19:18:55.956Z,42.80
2023-03-16T19:22:56.194Z,74.50
2023-03-16T19:26:57.318Z,63.00
2023-03-16T19:30:55.071Z,40.70
2023-03-16T19:34:53.942Z,39.20
2023-03-16T19:38:53.007Z,48.20
2023-03-16T19:42:52.994Z,61.00
2023-03-16T19:46:50.991Z,69.10
2023-03-16T19:50:48.973Z,74.50
2023-03-16T19:54:49.022Z,85.40
2023-03-16T19:58:52.084Z,81.90
2023-03-16T20:02:54.982Z,75.70
2023-03-16T20:06:52.935Z,64.00
2023-03-16T20:10:51.039Z,67.80
2023-03-16T20:14:48.913Z,64.30
2023-03-16T20:18:46.901Z,59.50
2023-03-16T20:22:44.973Z,51.70
2023-03-16T20:26:45.028Z,58.50
2023-03-16T20:30:45.013Z,71.20
2023-03-16T20:34:46.256Z,78.30
2023-03-16T20:38:43.855Z,80.10
2023-03-16T20:42:46.911Z,78.40
2023-03-16T20:46:47.914Z,80.30
2023-03-16T20:50:47.861Z,74.40
2023-03-16T20:54:45.840Z,73.10
2023-03-16T20:58:49.943Z,77.60
2023-03-16T21:02:49.833Z,81.70
2023-03-16T21:06:48.068Z,78.40
2023-03-16T21:10:45.823Z,74.10
2023-03-16T21:14:43.836Z,67.20
2023-03-16T21:18:44.776Z,66.20
2023-03-16T21:22:44.884Z,66.10
2023-03-16T21:26:35.973Z,71.00
2023-03-16T21:30:42.917Z,73.10
2023-03-16T21:34:45.858Z,79.10
2023-03-16T21:38:45.896Z,91.70
2023-03-16T21:42:43.761Z,96.30
2023-03-16T21:46:41.814Z,90.80
2023-03-16T21:50:43.732Z,91.20
2023-03-16T21:54:41.908Z,86.70
2023-03-16T21:58:39.877Z,90.70
2023-03-16T22:02:39.899Z,85.20
2023-03-16T22:06:38.742Z,83.80
2023-03-16T22:10:36.781Z,80.70
2023-03-16T22:14:34.766Z,88.10
2023-03-16T22:18:41.705Z,93.20
2023-03-16T22:22:39.726Z,97.40
2023-03-16T22:26:38.736Z,89.70
2023-03-16T22:30:43.720Z,88.20
2023-03-16T22:34:58.767Z,104.70
2023-03-16T22:38:57.642Z,94.20
2023-03-16T22:42:55.691Z,93.10
2023-03-16T22:46:53.711Z,96.70
2023-03-16T22:50:51.692Z,95.60
2023-03-16T22:54:49.670Z,100.60
2023-03-16T22:58:50.664Z,104.50
2023-03-16T23:02:48.629Z,106.20
2023-03-16T23:06:46.649Z,91.70
2023-03-16T23:10:45.599Z,97.10
2023-03-16T23:14:45.681Z,97.60
2023-03-16T23:18:43.691Z,94.30
2023-03-16T23:22:41.668Z,96.60
2023-03-16T23:26:41.701Z,96.40
2023-03-16T23:30:40.654Z,95.50
2023-03-16T23:34:39.599Z,97.40
2023-03-16T23:38:37.788Z,92.70
2023-03-16T23:42:36.592Z,94.30
2023-03-16T23:46:38.615Z,93.20
2023-03-16T23:50:41.552Z,93.90
2023-03-16T23:54:42.603Z,96.30
2023-03-16T23:58:43.798Z,99.40
